Time;durP1;ratioP1;P1;durP2;ratioP2;P2;SDS_P1;SDS_P2;PMS_P1;PMS_P2;Temp;Humidity;BMP_temperature;BMP_pressure;BME280_temperature;BME280_humidity;BME280_pressure;Samples;Min_cycle;Max_cycle;Signal;HPM_P1;HPM_P2
2022/02/16 00:01:24;;;;;;;45.03;24.60;;;;;;;0.24;100.00;96130.41;5087880;28;20025;-60
2022/02/16 00:03:50;;;;;;;64.82;29.20;;;;;;;0.27;100.00;96120.75;5091605;28;20510;-60
2022/02/16 00:06:15;;;;;;;58.85;28.25;;;;;;;0.31;100.00;96112.84;5082253;28;20066;-60
2022/02/16 00:08:41;;;;;;;66.88;29.13;;;;;;;0.30;100.00;96119.78;5085359;28;20453;-60
2022/02/16 00:11:06;;;;;;;51.80;25.65;;;;;;;0.30;100.00;96113.75;5086030;28;20063;-60
2022/02/16 00:13:31;;;;;;;57.63;29.30;;;;;;;0.28;100.00;96103.47;5091321;28;20040;-60
2022/02/16 00:15:57;;;;;;;56.97;30.45;;;;;;;0.33;100.00;96108.41;5092665;28;20115;-60
2022/02/16 00:18:22;;;;;;;75.38;36.60;;;;;;;0.37;100.00;96104.81;5084188;28;20134;-60
2022/02/16 00:20:48;;;;;;;47.65;27.00;;;;;;;0.42;100.00;96100.25;5087908;28;20035;-60
2022/02/16 00:23:14;;;;;;;28.27;18.52;;;;;;;0.41;100.00;96098.56;5085806;28;20077;-60
2022/02/16 00:25:39;;;;;;;29.60;18.13;;;;;;;0.42;100.00;96087.31;5076154;28;20033;-60
2022/02/16 00:28:05;;;;;;;22.33;16.80;;;;;;;0.43;100.00;96086.38;5084719;28;20025;-60
2022/02/16 00:30:30;;;;;;;25.80;17.33;;;;;;;0.42;100.00;96074.34;5087934;28;20036;-59
2022/02/16 00:32:56;;;;;;;21.48;15.70;;;;;;;0.40;100.00;96065.81;5091200;28;20066;-59
2022/02/16 00:35:21;;;;;;;15.50;12.48;;;;;;;0.42;100.00;96069.16;5082471;28;20047;-60
2022/02/16 00:37:47;;;;;;;13.57;11.13;;;;;;;0.45;100.00;96063.84;5087168;28;20036;-60
2022/02/16 00:40:13;;;;;;;15.73;12.23;;;;;;;0.46;100.00;96059.50;5085426;28;20408;-60
2022/02/16 00:42:38;;;;;;;21.08;15.10;;;;;;;0.50;100.00;96063.63;5083337;28;20031;-60
2022/02/16 00:45:05;;;;;;;17.52;13.27;;;;;;;0.48;100.00;96055.91;5088319;28;20039;-60
2022/02/16 00:47:31;;;;;;;14.93;11.57;;;;;;;0.37;100.00;96055.59;5087109;28;20619;-59
2022/02/16 00:49:57;;;;;;;11.25;10.05;;;;;;;0.36;100.00;96056.50;5086866;28;20028;-60
2022/02/16 00:52:22;;;;;;;16.77;10.80;;;;;;;0.34;100.00;96045.38;5085201;28;20381;-60
2022/02/16 00:54:48;;;;;;;13.15;10.57;;;;;;;0.34;100.00;96050.56;5086463;28;20107;-59
2022/02/16 00:57:14;;;;;;;12.88;10.65;;;;;;;0.32;100.00;96048.03;5084097;28;20123;-60
2022/02/16 00:59:40;;;;;;;14.88;11.40;;;;;;;0.30;100.00;96052.44;5085746;28;20032;-60
2022/02/16 01:02:05;;;;;;;13.85;11.38;;;;;;;0.26;100.00;96049.13;5078461;28;20031;-60
2022/02/16 01:04:31;;;;;;;14.32;11.07;;;;;;;0.23;100.00;96044.09;5085163;28;20123;-60
2022/02/16 01:06:56;;;;;;;11.85;9.65;;;;;;;0.23;100.00;96054.47;5083924;28;20522;-60
2022/02/16 01:09:21;;;;;;;11.75;9.77;;;;;;;0.25;100.00;96057.81;5085546;28;20400;-60
2022/02/16 01:11:47;;;;;;;12.45;9.80;;;;;;;0.28;100.00;96055.09;5083847;28;20024;-60
2022/02/16 01:14:12;;;;;;;10.10;8.93;;;;;;;0.26;100.00;96056.91;5084934;28;20082;-60
2022/02/16 01:16:37;;;;;;;10.05;8.85;;;;;;;0.27;100.00;96066.34;5082179;28;20021;-60
2022/02/16 01:19:04;;;;;;;11.23;9.77;;;;;;;0.25;100.00;96063.00;5082609;28;20113;-60
2022/02/16 01:21:29;;;;;;;11.35;8.80;;;;;;;0.24;100.00;96065.66;5087775;28;20028;-60
2022/02/16 01:23:55;;;;;;;11.82;9.13;;;;;;;0.24;100.00;96065.66;5092296;28;20031;-60
2022/02/16 01:26:22;;;;;;;13.98;11.25;;;;;;;0.25;100.00;96073.34;5091567;28;20029;-60
2022/02/16 01:28:47;;;;;;;15.05;13.45;;;;;;;0.24;100.00;96058.72;5092486;28;20027;-60
2022/02/16 01:31:13;;;;;;;16.60;12.65;;;;;;;0.25;100.00;96070.75;5092297;28;20107;-60
2022/02/16 01:33:38;;;;;;;13.65;10.50;;;;;;;0.27;100.00;96061.16;5092052;28;20487;-60
2022/02/16 01:36:04;;;;;;;12.27;10.23;;;;;;;0.26;100.00;96062.09;5092250;28;20020;-60
2022/02/16 01:38:30;;;;;;;12.75;10.52;;;;;;;0.29;100.00;96053.34;5092088;28;20120;-60
2022/02/16 01:40:55;;;;;;;12.43;9.63;;;;;;;0.28;100.00;96052.50;5092244;28;20527;-59
2022/02/16 01:43:22;;;;;;;11.52;10.32;;;;;;;0.27;100.00;96048.22;5091920;28;20024;-60
2022/02/16 01:45:48;;;;;;;10.32;9.23;;;;;;;0.27;100.00;96050.00;5092069;28;20024;-60
2022/02/16 01:48:13;;;;;;;12.25;9.90;;;;;;;0.26;100.00;96049.13;5091813;28;20031;-60
2022/02/16 01:50:39;;;;;;;13.63;10.93;;;;;;;0.25;100.00;96052.63;5092027;28;20497;-60
2022/02/16 01:53:04;;;;;;;12.38;10.48;;;;;;;0.24;100.00;96055.31;5092159;28;20028;-60
2022/02/16 01:55:30;;;;;;;13.13;11.07;;;;;;;0.25;100.00;96050.03;5091814;28;20028;-60
2022/02/16 01:57:57;;;;;;;13.00;9.80;;;;;;;0.25;100.00;96044.03;5091945;28;20031;-59
2022/02/16 02:00:22;;;;;;;13.15;10.45;;;;;;;0.28;100.00;96039.53;5091687;28;20030;-60
2022/02/16 02:02:47;;;;;;;19.88;13.80;;;;;;;0.29;100.00;96045.56;5091835;28;20032;-60
2022/02/16 02:05:13;;;;;;;16.42;13.07;;;;;;;0.31;100.00;96045.50;5091575;28;20035;-60
2022/02/16 02:07:40;;;;;;;17.95;12.82;;;;;;;0.52;100.00;96041.91;5091668;28;20024;-60
2022/02/16 02:10:06;;;;;;;11.88;10.57;;;;;;;0.38;100.00;96039.97;5091578;28;20020;-60
2022/02/16 02:12:32;;;;;;;13.05;9.18;;;;;;;0.50;100.00;96035.97;5091525;28;20035;-59
2022/02/16 02:14:57;;;;;;;11.40;8.80;;;;;;;0.59;100.00;96039.06;5090308;28;20028;-60
2022/02/16 02:17:23;;;;;;;11.15;8.25;;;;;;;0.55;100.00;96035.75;5090927;28;20048;-60
2022/02/16 02:19:48;;;;;;;15.00;10.40;;;;;;;0.45;100.00;96031.94;5091512;28;20035;-60
2022/02/16 02:22:13;;;;;;;13.75;10.60;;;;;;;0.40;100.00;96030.38;5091319;28;20472;-59
2022/02/16 02:24:39;;;;;;;16.58;9.70;;;;;;;0.37;100.00;96021.91;5091369;28;20028;-60
2022/02/16 02:27:04;;;;;;;14.95;9.75;;;;;;;0.31;100.00;96019.59;5091538;28;20040;-59
2022/02/16 02:29:31;;;;;;;12.38;10.30;;;;;;;0.28;100.00;96013.63;5091470;28;20076;-59
2022/02/16 02:31:57;;;;;;;13.63;11.40;;;;;;;0.27;100.00;96006.78;5091320;28;20097;-60
2022/02/16 02:34:23;;;;;;;12.45;10.38;;;;;;;0.55;100.00;96013.28;5091296;28;20060;-60
2022/02/16 02:36:48;;;;;;;12.80;10.68;;;;;;;0.39;100.00;96013.13;5091382;28;20777;-60
2022/02/16 02:39:14;;;;;;;11.27;10.10;;;;;;;0.32;100.00;96006.56;5091461;28;20081;-59
2022/02/16 02:41:39;;;;;;;10.40;9.13;;;;;;;0.27;100.00;95999.00;5091204;28;20028;-60
2022/02/16 02:44:05;;;;;;;12.23;9.25;;;;;;;0.24;100.00;95996.56;5091132;28;20032;-60
2022/02/16 02:46:30;;;;;;;9.50;8.25;;;;;;;0.26;100.00;95997.34;5091441;28;20074;-60
2022/02/16 02:48:56;;;;;;;12.75;9.77;;;;;;;0.28;100.00;95995.50;5091109;28;20475;-60
2022/02/16 02:51:21;;;;;;;13.70;10.57;;;;;;;0.32;100.00;95997.94;5091331;28;20111;-59
2022/02/16 02:53:47;;;;;;;10.23;9.15;;;;;;;0.35;100.00;95990.88;5091030;28;20032;-59
2022/02/16 02:56:12;;;;;;;11.98;10.07;;;;;;;0.34;100.00;95984.03;5090291;28;20407;-59
2022/02/16 02:58:38;;;;;;;13.38;11.13;;;;;;;0.34;100.00;95989.22;5091203;28;20380;-59
2022/02/16 03:01:04;;;;;;;10.55;9.10;;;;;;;0.36;100.00;95983.97;5091116;28;20514;-60
2022/02/16 03:03:32;;;;;;;10.85;8.48;;;;;;;0.37;100.00;95980.47;5091060;28;20031;-60
2022/02/16 03:05:57;;;;;;;10.07;8.38;;;;;;;0.41;100.00;95976.81;5091032;28;20046;-60
2022/02/16 03:08:23;;;;;;;10.05;8.43;;;;;;;0.38;100.00;95979.56;5090996;28;20469;-60
2022/02/16 03:10:48;;;;;;;8.80;6.80;;;;;;;0.36;100.00;95978.78;5091245;28;20108;-60
2022/02/16 03:13:19;;;;;;;10.93;8.63;;;;;;;0.31;100.00;95975.56;5091015;28;20032;-60
2022/02/16 03:15:46;;;;;;;9.05;8.13;;;;;;;0.24;100.00;95975.03;5090918;28;20070;-60
2022/02/16 03:18:11;;;;;;;9.95;8.95;;;;;;;0.16;100.00;95966.75;5090720;28;20048;-60
2022/02/16 03:20:37;;;;;;;9.70;8.20;;;;;;;0.10;100.00;95954.94;5090876;28;20076;-60
2022/02/16 03:23:02;;;;;;;9.13;8.15;;;;;;;0.04;100.00;95960.41;5090879;28;20106;-60
2022/02/16 03:25:28;;;;;;;8.60;7.78;;;;;;;-0.01;100.00;95958.00;5090889;28;20400;-59
2022/02/16 03:27:53;;;;;;;7.47;6.00;;;;;;;-0.03;100.00;95960.69;5090901;28;20024;-59
2022/02/16 03:30:18;;;;;;;7.68;6.82;;;;;;;-0.04;100.00;95953.84;5094417;28;20047;-60
2022/02/16 03:32:44;;;;;;;7.93;7.18;;;;;;;-0.06;100.00;95962.56;5094623;28;20031;-60
2022/02/16 03:35:09;;;;;;;8.88;6.53;;;;;;;-0.09;100.00;95952.34;5094697;28;20502;-59
2022/02/16 03:37:35;;;;;;;7.30;6.60;;;;;;;-0.13;100.00;95956.00;5094594;28;20045;-59
2022/02/16 03:40:01;;;;;;;7.47;6.78;;;;;;;-0.15;100.00;95963.81;5094488;28;20503;-60
2022/02/16 03:42:27;;;;;;;7.05;6.38;;;;;;;-0.18;100.00;95959.66;5085696;28;20071;-60
2022/02/16 03:44:52;;;;;;;7.25;6.55;;;;;;;-0.21;100.00;95966.69;5073984;28;20032;-60
2022/02/16 03:47:17;;;;;;;6.95;6.25;;;;;;;-0.28;100.00;95958.38;5073990;28;20115;-59
2022/02/16 03:49:43;;;;;;;7.93;6.40;;;;;;;-0.32;100.00;95960.28;5073996;28;20032;-59
2022/02/16 03:52:08;;;;;;;6.63;6.00;;;;;;;-0.34;100.00;95961.22;5074014;28;20513;-59
2022/02/16 03:54:33;;;;;;;6.63;6.00;;;;;;;-0.36;100.00;95958.69;5073835;28;20028;-60
2022/02/16 03:56:59;;;;;;;4.03;3.72;;;;;;;-0.35;100.00;95962.13;5073893;28;20025;-60
2022/02/16 03:59:24;;;;;;;3.53;3.30;;;;;;;-0.33;100.00;95971.53;5073799;28;20061;-59
2022/02/16 04:01:49;;;;;;;5.32;3.38;;;;;;;-0.31;100.00;95974.03;5073805;28;20016;-59
2022/02/16 04:04:15;;;;;;;3.47;3.20;;;;;;;-0.26;100.00;95981.59;5072352;28;20055;-60
2022/02/16 04:06:40;;;;;;;4.25;3.22;;;;;;;-0.23;100.00;95978.88;5073723;28;20024;-60
2022/02/16 04:09:06;;;;;;;4.85;3.35;;;;;;;-0.22;100.00;95976.22;5073732;28;20017;-59
2022/02/16 04:11:31;;;;;;;3.90;3.60;;;;;;;-0.19;100.00;95980.41;5072352;28;20028;-59
2022/02/16 04:13:56;;;;;;;3.67;3.38;;;;;;;-0.17;100.00;95982.03;5073629;28;20702;-59
2022/02/16 04:16:23;;;;;;;6.78;3.88;;;;;;;-0.13;100.00;95981.88;5073471;28;20028;-60
2022/02/16 04:18:49;;;;;;;4.25;3.95;;;;;;;-0.12;100.00;95986.97;5073279;28;20458;-60
2022/02/16 04:21:14;;;;;;;4.85;4.45;;;;;;;-0.10;100.00;95980.00;5073434;28;20028;-60
2022/02/16 04:23:43;;;;;;;5.40;4.90;;;;;;;-0.05;100.00;95969.41;5089496;28;20020;-60
2022/02/16 04:26:10;;;;;;;5.28;4.78;;;;;;;-0.02;100.00;95977.03;5093801;28;20365;-59
2022/02/16 04:28:36;;;;;;;4.95;4.55;;;;;;;-0.03;100.00;95965.00;5093541;28;20054;-59
2022/02/16 04:31:01;;;;;;;4.75;4.35;;;;;;;-0.04;100.00;95959.00;5093536;28;20020;-60
2022/02/16 04:33:26;;;;;;;5.13;4.53;;;;;;;-0.04;100.00;95959.00;5093447;28;20031;-60
2022/02/16 04:35:52;;;;;;;6.05;5.03;;;;;;;-0.05;100.00;95956.47;5093288;28;20123;-59
2022/02/16 04:38:17;;;;;;;5.22;4.70;;;;;;;-0.05;100.00;95952.16;5093311;28;20107;-59
2022/02/16 04:40:43;;;;;;;5.47;4.88;;;;;;;-0.05;100.00;95952.16;5092863;28;20024;-60
2022/02/16 04:43:08;;;;;;;5.35;4.55;;;;;;;-0.06;100.00;95953.06;5093161;28;20103;-59
2022/02/16 04:45:34;;;;;;;5.65;5.15;;;;;;;-0.08;100.00;95954.88;5093078;28;20028;-59
2022/02/16 04:48:00;;;;;;;5.57;5.07;;;;;;;-0.09;100.00;95945.44;5092993;28;20031;-59
2022/02/16 04:50:26;;;;;;;4.90;4.47;;;;;;;-0.08;100.00;95939.34;5093085;28;20017;-59
2022/02/16 04:52:54;;;;;;;5.20;4.68;;;;;;;-0.06;100.00;95944.44;5092991;28;20483;-60
2022/02/16 04:55:21;;;;;;;5.95;5.35;;;;;;;0.00;100.00;95944.19;5092439;28;20126;-60
2022/02/16 04:57:47;;;;;;;6.00;5.50;;;;;;;0.03;100.00;95943.19;5092982;28;20060;-59
2022/02/16 05:00:12;;;;;;;7.30;6.05;;;;;;;0.04;100.00;95937.09;5092756;28;20055;-60
2022/02/16 05:02:38;;;;;;;7.18;6.47;;;;;;;0.02;100.00;95936.34;5092829;28;20024;-60
2022/02/16 05:05:04;;;;;;;6.93;6.22;;;;;;;0.03;100.00;95938.00;5092891;28;20081;-60
2022/02/16 05:07:29;;;;;;;8.05;6.05;;;;;;;0.01;100.00;95934.66;5092810;28;20028;-59
2022/02/16 05:09:55;;;;;;;6.30;5.72;;;;;;;-0.03;100.00;95934.81;5091123;28;20027;-59
2022/02/16 05:12:20;;;;;;;7.18;6.35;;;;;;;-0.02;100.00;95933.03;5092415;28;20036;-60
2022/02/16 05:14:45;;;;;;;20.38;16.90;;;;;;;-0.03;100.00;95929.63;5074416;28;20059;-59
2022/02/16 05:17:11;;;;;;;27.15;19.05;;;;;;;0.00;100.00;95931.25;5091652;28;20456;-59
2022/02/16 05:19:36;;;;;;;24.52;17.77;;;;;;;-0.01;100.00;95922.63;5092584;28;20035;-59
2022/02/16 05:22:02;;;;;;;15.32;12.30;;;;;;;0.18;100.00;95926.09;5092333;28;20109;-59
2022/02/16 05:24:27;;;;;;;14.73;11.65;;;;;;;0.11;100.00;95920.34;5092482;28;20032;-59
2022/02/16 05:26:53;;;;;;;19.92;13.95;;;;;;;0.10;100.00;95913.50;5092016;28;20032;-60
2022/02/16 05:29:18;;;;;;;17.70;14.45;;;;;;;0.12;100.00;95917.72;5092311;28;20036;-60
2022/02/16 05:31:44;;;;;;;15.07;12.90;;;;;;;0.13;100.00;95921.16;5092251;28;20060;-60
2022/02/16 05:34:10;;;;;;;13.55;11.23;;;;;;;0.13;100.00;95923.75;5092248;28;20032;-60
2022/02/16 05:36:36;;;;;;;12.90;10.15;;;;;;;0.13;100.00;95914.19;5092161;28;20020;-59
2022/02/16 05:39:03;;;;;;;9.57;8.50;;;;;;;0.15;100.00;95921.91;5092170;28;20224;-60
2022/02/16 05:41:29;;;;;;;8.50;7.07;;;;;;;0.19;100.00;95918.25;5092140;28;20051;-60
2022/02/16 05:43:55;;;;;;;10.70;9.60;;;;;;;0.24;100.00;95915.47;5092086;28;20020;-60
2022/02/16 05:46:21;;;;;;;11.43;10.18;;;;;;;0.25;100.00;95917.97;5091289;28;20031;-60
2022/02/16 05:48:46;;;;;;;16.23;13.25;;;;;;;0.26;100.00;95914.47;5092013;28;20361;-60
2022/02/16 05:51:12;;;;;;;10.20;9.10;;;;;;;0.25;100.00;95910.19;5091311;28;20024;-60
2022/02/16 05:53:37;;;;;;;13.15;11.10;;;;;;;0.26;100.00;95919.63;5091859;28;20084;-59
2022/02/16 05:56:03;;;;;;;10.90;9.60;;;;;;;0.28;100.00;95917.81;5091747;28;20020;-60
2022/02/16 05:58:30;;;;;;;8.60;7.78;;;;;;;0.27;100.00;95916.13;5091704;28;20185;-60
2022/02/16 06:00:55;;;;;;;8.48;7.53;;;;;;;0.26;100.00;95922.22;5091624;28;20026;-59
2022/02/16 06:03:21;;;;;;;10.00;7.63;;;;;;;0.30;100.00;95919.50;5091715;28;20107;-60
2022/02/16 06:05:46;;;;;;;8.75;7.80;;;;;;;0.32;100.00;95921.09;5091873;28;20020;-60
2022/02/16 06:08:12;;;;;;;7.60;6.85;;;;;;;0.36;100.00;95921.81;5091758;28;20479;-60
2022/02/16 06:10:37;;;;;;;19.90;17.98;;;;;;;0.38;100.00;95923.38;5091815;28;20020;-60
2022/02/16 06:13:03;;;;;;;13.23;11.88;;;;;;;0.38;100.00;95905.25;5091616;28;20031;-60
2022/02/16 06:15:28;;;;;;;16.77;13.15;;;;;;;0.40;100.00;95911.19;5090618;28;20024;-60
2022/02/16 06:17:54;;;;;;;15.70;13.52;;;;;;;0.38;100.00;95905.25;5091355;28;20063;-60
2022/02/16 06:20:21;;;;;;;14.10;12.63;;;;;;;0.42;100.00;95906.78;5091687;28;20064;-60
2022/02/16 06:22:46;;;;;;;10.40;9.20;;;;;;;0.45;100.00;95918.75;5091499;28;20024;-60
2022/02/16 06:25:12;;;;;;;9.13;7.18;;;;;;;0.46;100.00;95914.44;5091389;28;20027;-60
2022/02/16 06:27:37;;;;;;;9.65;8.75;;;;;;;0.46;100.00;95917.84;5091358;28;20051;-60
2022/02/16 06:30:04;;;;;;;8.90;7.90;;;;;;;0.45;100.00;95918.75;5091183;28;20048;-60
2022/02/16 06:32:30;;;;;;;9.27;7.65;;;;;;;0.44;100.00;95922.25;5091155;28;20491;-60
2022/02/16 06:34:55;;;;;;;9.45;8.50;;;;;;;0.41;100.00;95917.22;5091464;28;20099;-60
2022/02/16 06:37:21;;;;;;;8.77;7.95;;;;;;;0.42;100.00;95922.31;5091250;28;20035;-60
2022/02/16 06:39:46;;;;;;;8.27;7.53;;;;;;;0.46;100.00;95924.78;5091413;28;20074;-60
2022/02/16 06:42:12;;;;;;;7.82;6.88;;;;;;;0.51;100.00;95928.00;5091303;28;20052;-60
2022/02/16 06:44:37;;;;;;;9.15;8.32;;;;;;;0.54;100.00;95933.84;5090328;28;20480;-60
2022/02/16 06:47:03;;;;;;;81.90;49.33;;;;;;;0.57;100.00;95923.34;5090471;28;20028;-61
2022/02/16 06:49:29;;;;;;;22.50;16.63;;;;;;;0.57;100.00;95932.88;5091378;28;20020;-60
2022/02/16 06:51:54;;;;;;;15.82;12.52;;;;;;;0.58;100.00;95931.97;5091223;28;20455;-60
2022/02/16 06:54:19;;;;;;;24.50;16.67;;;;;;;0.59;100.00;95935.41;5090896;28;20049;-60
2022/02/16 06:56:45;;;;;;;21.80;15.65;;;;;;;0.57;100.00;95935.47;5090696;28;20114;-60
2022/02/16 06:59:10;;;;;;;21.40;17.45;;;;;;;0.56;100.00;95939.81;5091195;28;20028;-60
2022/02/16 07:01:36;;;;;;;27.48;18.30;;;;;;;0.60;100.00;95942.25;5090487;28;20090;-61
2022/02/16 07:04:01;;;;;;;15.63;12.52;;;;;;;0.60;100.00;95947.44;5094353;28;20027;-60
2022/02/16 07:06:27;;;;;;;20.05;15.07;;;;;;;0.61;100.00;95949.13;5076872;28;20027;-60
2022/02/16 07:08:52;;;;;;;18.08;13.52;;;;;;;0.62;100.00;95958.56;5094776;28;20551;-60
2022/02/16 07:11:18;;;;;;;13.65;11.05;;;;;;;0.66;100.00;95955.75;5093445;28;20020;-60
2022/02/16 07:13:43;;;;;;;17.70;11.52;;;;;;;0.67;100.00;95956.59;5092795;28;20793;-60
2022/02/16 07:16:09;;;;;;;12.95;11.65;;;;;;;0.68;100.00;95953.94;5094030;28;20020;-61
2022/02/16 07:18:39;;;;;;;13.90;12.52;;;;;;;0.69;100.00;95953.00;5092794;28;20048;-61
2022/02/16 07:21:04;;;;;;;23.70;18.00;;;;;;;0.69;100.00;95958.19;5093623;28;20024;-62
2022/02/16 07:23:30;;;;;;;18.50;13.43;;;;;;;0.71;100.00;95950.34;5093941;28;20111;-63
2022/02/16 07:25:57;;;;;;;10.80;9.80;;;;;;;0.66;100.00;95953.16;5094772;28;20031;-62
2022/02/16 07:28:22;;;;;;;8.50;7.72;;;;;;;0.62;100.00;95945.59;5092320;28;20099;-63
2022/02/16 07:30:48;;;;;;;8.20;7.40;;;;;;;0.62;100.00;95949.03;5092388;28;20132;-62
2022/02/16 07:33:15;;;;;;;17.27;15.48;;;;;;;0.66;100.00;95953.16;5073802;28;20407;-61
2022/02/16 07:35:40;;;;;;;13.18;11.80;;;;;;;0.69;100.00;95953.00;5092309;28;20028;-62
2022/02/16 07:38:06;;;;;;;16.05;12.30;;;;;;;0.74;100.00;95959.72;5074550;28;20024;-62
2022/02/16 07:40:31;;;;;;;15.52;13.90;;;;;;;0.76;100.00;95958.72;5092765;28;20040;-61
2022/02/16 07:42:57;;;;;;;14.77;13.18;;;;;;;0.75;100.00;95964.00;5092299;28;20020;-61
2022/02/16 07:45:22;;;;;;;17.42;12.48;;;;;;;0.75;100.00;95966.59;5092457;28;20052;-63
2022/02/16 07:47:47;;;;;;;13.80;12.18;;;;;;;0.75;100.00;95967.41;5092987;28;20036;-61
2022/02/16 07:50:13;;;;;;;12.80;11.05;;;;;;;0.78;100.00;95972.47;5094276;28;20028;-62
2022/02/16 07:52:39;;;;;;;12.90;11.38;;;;;;;0.83;100.00;95974.81;5094254;28;20126;-62
2022/02/16 07:55:05;;;;;;;12.93;10.98;;;;;;;0.88;100.00;95974.59;5094116;28;20075;-61
2022/02/16 07:57:30;;;;;;;11.48;10.38;;;;;;;0.89;100.00;95978.88;5093912;28;20031;-61
2022/02/16 07:59:56;;;;;;;14.32;11.55;;;;;;;0.88;100.00;95982.38;5094104;28;20036;-61
2022/02/16 08:02:22;;;;;;;14.77;13.27;;;;;;;0.83;100.00;95978.25;5094195;28;20024;-61
2022/02/16 08:04:47;;;;;;;14.25;12.10;;;;;;;0.84;100.00;95992.03;5093403;28;20032;-61
2022/02/16 08:07:13;;;;;;;11.00;9.88;;;;;;;0.84;100.00;95987.72;5092592;28;20476;-61
2022/02/16 08:09:38;;;;;;;10.60;9.55;;;;;;;0.81;100.00;95993.06;5093817;28;20016;-61
2022/02/16 08:12:04;;;;;;;9.63;8.73;;;;;;;0.79;100.00;95994.03;5075670;28;20678;-65
2022/02/16 08:14:33;;;;;;;9.02;8.13;;;;;;;0.77;100.00;95991.50;5092989;28;20422;-60
2022/02/16 08:17:00;;;;;;;10.90;9.80;;;;;;;0.73;100.00;95983.97;5087459;28;20016;-59
2022/02/16 08:19:26;;;;;;;14.02;10.15;;;;;;;0.71;100.00;95991.81;5075281;28;20032;-59
2022/02/16 08:21:55;;;;;;;11.52;8.57;;;;;;;0.69;100.00;95993.63;5092476;28;20081;-59
2022/02/16 08:24:21;;;;;;;11.05;9.95;;;;;;;0.72;100.00;95990.88;5092559;28;20470;-59
2022/02/16 08:26:46;;;;;;;10.63;9.63;;;;;;;0.78;100.00;95987.16;5090947;28;20051;-60
2022/02/16 08:29:14;;;;;;;8.73;7.88;;;;;;;0.82;100.00;95984.34;5091118;28;20095;-60
2022/02/16 08:31:45;;;;;;;11.55;10.27;;;;;;;0.86;100.00;95979.84;5091281;28;20031;-59
2022/02/16 08:34:11;;;;;;;10.25;9.18;;;;;;;0.88;100.00;95988.38;5090897;28;20031;-59
2022/02/16 08:36:37;;;;;;;8.40;7.63;;;;;;;0.89;100.00;95979.72;5089158;28;20099;-59
2022/02/16 08:39:03;;;;;;;8.07;6.78;;;;;;;0.93;100.00;95983.84;5090804;28;20498;-59
2022/02/16 08:41:29;;;;;;;8.30;6.82;;;;;;;0.93;100.00;95981.25;5090578;28;20043;-59
2022/02/16 08:43:54;;;;;;;8.00;7.20;;;;;;;0.94;100.00;95980.31;5090689;28;20089;-59
2022/02/16 08:46:19;;;;;;;6.88;6.28;;;;;;;0.99;100.00;95973.16;5090967;28;20028;-59
2022/02/16 08:48:45;;;;;;;8.43;7.57;;;;;;;1.00;100.00;95966.22;5092044;28;20062;-59
2022/02/16 08:51:11;;;;;;;12.80;11.52;;;;;;;1.05;100.00;95972.00;5091329;28;20457;-59
2022/02/16 08:53:36;;;;;;;12.55;11.25;;;;;;;0.99;100.00;95972.28;5090964;28;20421;-60
2022/02/16 08:56:02;;;;;;;14.27;12.88;;;;;;;0.99;100.00;95965.38;5091153;28;20039;-60
2022/02/16 08:58:28;;;;;;;12.55;11.25;;;;;;;0.98;100.00;95976.66;5092460;28;20066;-59
2022/02/16 09:00:54;;;;;;;11.27;9.90;;;;;;;0.96;100.00;95972.44;5090575;28;20027;-59
2022/02/16 09:03:20;;;;;;;10.27;9.27;;;;;;;0.91;100.00;95979.63;5082044;28;20036;-59
2022/02/16 09:05:46;;;;;;;10.00;8.68;;;;;;;0.96;100.00;95977.63;5089599;28;20040;-59
2022/02/16 09:08:11;;;;;;;8.50;7.43;;;;;;;0.98;100.00;95974.06;5088863;28;20385;-59
2022/02/16 09:10:36;;;;;;;8.65;7.85;;;;;;;1.07;100.00;95975.38;5089447;28;20403;-60
2022/02/16 09:13:02;;;;;;;7.68;7.00;;;;;;;1.03;100.00;95976.44;5091816;28;20086;-59
2022/02/16 09:15:28;;;;;;;7.55;6.85;;;;;;;1.06;100.00;95975.44;5089695;28;20031;-59
2022/02/16 09:17:54;;;;;;;7.32;6.63;;;;;;;0.99;100.00;95982.66;5089582;28;20097;-59
2022/02/16 09:20:20;;;;;;;7.80;7.10;;;;;;;1.06;100.00;95984.06;5087793;28;20637;-59
2022/02/16 09:22:46;;;;;;;7.10;6.40;;;;;;;1.08;100.00;95977.03;5086684;28;20085;-59
2022/02/16 09:25:12;;;;;;;7.55;6.80;;;;;;;1.06;100.00;95983.22;5086695;28;20028;-60
2022/02/16 09:27:38;;;;;;;14.70;11.00;;;;;;;1.00;100.00;95981.78;5086519;28;20073;-59
2022/02/16 09:30:04;;;;;;;20.70;13.32;;;;;;;1.12;100.00;95980.34;5069045;28;20016;-59
2022/02/16 09:32:30;;;;;;;21.20;14.30;;;;;;;1.08;100.00;95990.00;5085914;28;20031;-59
2022/02/16 09:34:55;;;;;;;18.02;12.23;;;;;;;1.10;100.00;95982.13;5087685;28;20016;-59
2022/02/16 09:37:21;;;;;;;11.20;10.05;;;;;;;1.02;100.00;95984.28;5086478;28;20016;-58
2022/02/16 09:39:47;;;;;;;10.60;9.60;;;;;;;1.00;100.00;95982.59;5088046;28;20035;-59
2022/02/16 09:42:12;;;;;;;10.93;9.82;;;;;;;0.93;100.00;95985.56;5090155;28;20483;-59
2022/02/16 09:44:46;;;;;;;8.98;8.07;;;;;;;0.87;100.00;95985.88;5090777;28;20063;-59
2022/02/16 09:47:13;;;;;;;8.85;7.95;;;;;;;0.89;100.00;95990.09;5090343;28;20107;-59
2022/02/16 09:49:40;;;;;;;9.90;8.98;;;;;;;0.96;100.00;95978.50;5091383;28;20035;-59
2022/02/16 09:52:07;;;;;;;9.70;8.77;;;;;;;1.00;100.00;95974.00;5090582;28;20024;-59
2022/02/16 09:54:33;;;;;;;11.27;10.18;;;;;;;1.14;100.00;95970.72;5090122;28;20031;-59
2022/02/16 09:56:58;;;;;;;10.77;9.68;;;;;;;1.12;100.00;95975.97;5090477;28;20027;-59
2022/02/16 09:59:25;;;;;;;11.25;10.15;;;;;;;1.14;100.00;95984.50;5091238;28;20032;-59
2022/02/16 10:02:00;;;;;;;10.80;9.80;;;;;;;1.04;100.00;95993.69;5091095;28;20071;-59
2022/02/16 10:04:26;;;;;;;13.32;10.77;;;;;;;1.01;100.00;95993.84;5091287;28;20024;-59
2022/02/16 10:06:54;;;;;;;14.45;11.30;;;;;;;0.88;100.00;95997.94;5091042;28;20104;-59
2022/02/16 10:09:31;;;;;;;12.25;10.95;;;;;;;0.93;100.00;95991.63;5090874;28;20111;-59
2022/02/16 10:11:59;;;;;;;12.85;10.55;;;;;;;0.97;100.00;95992.28;5090890;28;20035;-59
2022/02/16 10:14:33;;;;;;;11.40;10.20;;;;;;;1.05;100.00;95984.97;5091096;28;20023;-59
2022/02/16 10:17:02;;;;;;;11.68;10.35;;;;;;;1.06;100.00;95975.44;5090502;28;20425;-59
2022/02/16 10:19:52;;;;;;;13.93;12.52;;;;;;;1.00;100.00;95981.78;5088981;28;20809;-59
2022/02/16 10:22:20;;;;;;;13.70;11.70;;;;;;;0.99;100.00;95980.06;5087298;28;20047;-59
2022/02/16 10:24:46;;;;;;;10.40;9.25;;;;;;;0.96;100.00;95985.41;5087601;28;20024;-59
2022/02/16 10:27:13;;;;;;;8.68;7.97;;;;;;;0.94;100.00;95987.25;5086792;28;20407;-59
2022/02/16 10:29:40;;;;;;;9.68;8.82;;;;;;;0.85;100.00;95984.22;5088257;28;20052;-59
2022/02/16 10:32:06;;;;;;;10.23;9.40;;;;;;;0.96;100.00;95998.38;5090274;28;20107;-59
2022/02/16 10:34:51;;;;;;;9.38;8.38;;;;;;;1.05;100.00;95986.72;5090880;28;20099;-59
2022/02/16 10:37:20;;;;;;;9.82;8.95;;;;;;;1.00;100.00;95986.97;5088952;28;20471;-59
2022/02/16 10:40:05;;;;;;;11.88;9.70;;;;;;;1.11;100.00;95978.66;5085840;28;20024;-59
2022/02/16 10:42:30;;;;;;;13.75;10.82;;;;;;;1.03;100.00;95976.44;5089478;28;20160;-59
2022/02/16 10:45:13;;;;;;;11.15;10.05;;;;;;;1.13;100.00;95977.66;5089078;28;20508;-59
2022/02/16 10:48:03;;;;;;;11.98;10.85;;;;;;;1.06;100.00;95981.47;5089460;28;20077;-60
2022/02/16 10:50:30;;;;;;;10.52;9.52;;;;;;;1.19;100.00;95975.66;5089946;28;20025;-59
2022/02/16 10:52:58;;;;;;;11.45;10.25;;;;;;;1.20;100.00;95973.00;5089812;28;20051;-59
2022/02/16 10:55:45;;;;;;;12.30;10.07;;;;;;;1.19;100.00;95973.06;5089543;28;20637;-59
2022/02/16 10:58:17;;;;;;;11.27;10.32;;;;;;;1.27;100.00;95974.34;5089718;28;20028;-59
2022/02/16 11:00:45;;;;;;;11.02;9.93;;;;;;;1.20;100.00;95965.22;5070459;28;20445;-59
2022/02/16 11:03:19;;;;;;;11.23;10.02;;;;;;;1.18;100.00;95968.78;5089325;28;20028;-60
2022/02/16 11:05:45;;;;;;;10.60;9.60;;;;;;;1.29;100.00;95956.13;5088832;28;20410;-58
2022/02/16 11:08:14;;;;;;;9.65;8.85;;;;;;;1.27;100.00;95953.59;5089610;28;20066;-59
2022/02/16 11:10:46;;;;;;;11.30;10.18;;;;;;;1.29;100.00;95961.31;5090403;28;20020;-60
2022/02/16 11:13:14;;;;;;;10.52;9.48;;;;;;;1.26;100.00;95966.66;5090167;28;20023;-59
2022/02/16 11:15:40;;;;;;;10.90;9.90;;;;;;;1.22;100.00;95953.00;5089608;28;20028;-59
2022/02/16 11:18:17;;;;;;;10.95;9.90;;;;;;;1.41;100.00;95955.47;5089072;28;20100;-60